createdAt,value
2018-07-25T00:00:17.173Z,28.20
2018-07-25T00:02:46.931Z,28.10
2018-07-25T00:05:17.281Z,28.10
2018-07-25T00:07:46.958Z,28.10
2018-07-25T00:10:16.393Z,28.00
2018-07-25T00:12:46.361Z,28.00
2018-07-25T00:15:16.250Z,28.00
2018-07-25T00:17:45.995Z,27.90
2018-07-25T00:20:15.947Z,27.90
2018-07-25T00:22:45.664Z,27.90
2018-07-25T00:25:15.165Z,27.90
2018-07-25T00:27:45.472Z,27.80
2018-07-25T00:30:14.958Z,27.80
2018-07-25T00:32:44.823Z,27.80
2018-07-25T00:35:14.716Z,27.80
2018-07-25T00:37:44.788Z,27.70
2018-07-25T00:40:14.457Z,27.70
2018-07-25T00:42:44.495Z,27.70
2018-07-25T00:45:14.644Z,27.60
2018-07-25T00:47:44.122Z,27.60
2018-07-25T00:50:13.904Z,27.60
2018-07-25T00:52:43.885Z,27.60
2018-07-25T00:55:13.605Z,27.50
2018-07-25T00:57:43.038Z,27.50
2018-07-25T01:00:12.867Z,27.50
2018-07-25T01:02:42.707Z,27.50
2018-07-25T01:05:12.450Z,27.40
2018-07-25T01:07:41.881Z,27.40
2018-07-25T01:10:11.971Z,27.40
2018-07-25T01:12:41.681Z,27.40
2018-07-25T01:15:11.782Z,27.30
2018-07-25T01:17:41.667Z,27.30
2018-07-25T01:20:11.188Z,27.30
2018-07-25T01:22:40.642Z,27.20
2018-07-25T01:25:10.628Z,27.20
2018-07-25T01:27:40.748Z,27.20
2018-07-25T01:30:10.500Z,27.20
2018-07-25T01:32:40.235Z,27.10
2018-07-25T01:35:10.297Z,27.10
2018-07-25T01:37:39.780Z,27.10
2018-07-25T01:40:09.551Z,27.10
2018-07-25T01:42:39.352Z,27.10
2018-07-25T01:45:09.189Z,27.00
2018-07-25T01:47:38.949Z,27.00
2018-07-25T01:50:09.054Z,27.00
2018-07-25T01:52:38.851Z,26.90
2018-07-25T01:55:09.234Z,26.90
2018-07-25T01:57:39.391Z,26.90
2018-07-25T02:00:09.270Z,26.90
2018-07-25T02:02:39.024Z,26.80
2018-07-25T02:05:08.452Z,26.80
2018-07-25T02:07:37.932Z,26.80
2018-07-25T02:10:08.039Z,26.80
2018-07-25T02:12:37.781Z,26.80
2018-07-25T02:15:08.220Z,26.70
2018-07-25T02:17:38.009Z,26.70
2018-07-25T02:20:07.512Z,26.70
2018-07-25T02:22:37.906Z,26.70
2018-07-25T02:25:07.754Z,26.70
2018-07-25T02:27:37.238Z,26.60
2018-07-25T02:30:07.072Z,26.60
2018-07-25T02:32:36.171Z,26.60
2018-07-25T02:35:05.828Z,26.60
2018-07-25T02:37:35.284Z,26.50
2018-07-25T02:40:05.164Z,26.50
2018-07-25T02:42:35.005Z,26.50
2018-07-25T02:45:04.513Z,26.50
2018-07-25T02:47:34.315Z,26.50
2018-07-25T02:50:04.637Z,26.40
2018-07-25T02:52:34.072Z,26.40
2018-07-25T02:55:03.521Z,26.40
2018-07-25T02:57:33.384Z,26.40
2018-07-25T03:00:03.985Z,26.40
2018-07-25T03:02:33.797Z,26.30
2018-07-25T03:05:03.315Z,26.30
2018-07-25T03:07:33.254Z,26.30
2018-07-25T03:10:03.091Z,26.30
2018-07-25T03:12:33.099Z,26.20
2018-07-25T03:15:03.378Z,26.20
2018-07-25T03:17:33.265Z,26.20
2018-07-25T03:20:03.090Z,26.20
2018-07-25T03:22:32.955Z,26.20
2018-07-25T03:25:02.994Z,26.10
2018-07-25T03:27:32.484Z,26.10
2018-07-25T03:30:01.981Z,26.10
2018-07-25T03:32:31.950Z,26.10
2018-07-25T03:35:01.996Z,26.10
2018-07-25T03:37:31.805Z,26.00
2018-07-25T03:40:01.845Z,26.00
2018-07-25T03:42:31.276Z,26.00
2018-07-25T03:45:00.721Z,26.00
2018-07-25T03:47:30.205Z,26.00
2018-07-25T03:49:59.668Z,26.00
2018-07-25T03:52:29.699Z,25.90
2018-07-25T03:54:59.698Z,25.90
2018-07-25T03:57:29.657Z,25.90
2018-07-25T03:59:59.072Z,25.90
2018-07-25T04:02:29.171Z,25.90
2018-07-25T04:04:59.061Z,25.90
2018-07-25T04:07:29.617Z,25.90
2018-07-25T04:09:59.949Z,25.80
2018-07-25T04:12:29.384Z,25.80
2018-07-25T04:14:59.171Z,25.80
2018-07-25T04:17:32.713Z,25.80
2018-07-25T04:20:02.190Z,25.80
2018-07-25T04:22:32.233Z,25.80
2018-07-25T04:25:01.698Z,25.80
2018-07-25T04:27:31.715Z,25.80
2018-07-25T04:30:01.541Z,25.80
2018-07-25T04:32:31.330Z,25.80
2018-07-25T04:35:01.085Z,25.80
2018-07-25T04:37:31.062Z,25.80
2018-07-25T04:40:00.495Z,25.90
2018-07-25T04:42:30.205Z,25.90
2018-07-25T04:44:59.656Z,25.90
2018-07-25T04:47:29.159Z,25.90
2018-07-25T04:49:58.830Z,25.90
2018-07-25T04:52:28.897Z,25.90
2018-07-25T04:54:58.730Z,26.00
2018-07-25T04:57:29.433Z,26.00
2018-07-25T04:59:58.880Z,26.00
2018-07-25T05:02:28.568Z,26.00
2018-07-25T05:04:58.262Z,26.10
2018-07-25T05:07:28.228Z,26.10
2018-07-25T05:09:57.740Z,26.10
2018-07-25T05:12:27.538Z,26.20
2018-07-25T05:14:56.961Z,26.20
2018-07-25T05:17:26.681Z,26.20
2018-07-25T05:19:56.739Z,26.20
2018-07-25T05:22:26.165Z,26.30
2018-07-25T05:24:55.758Z,26.30
2018-07-25T05:27:25.761Z,26.30
2018-07-25T05:29:55.194Z,26.40
2018-07-25T05:32:24.637Z,26.40
2018-07-25T05:34:54.166Z,26.40
2018-07-25T05:37:23.762Z,26.50
2018-07-25T05:39:53.178Z,26.50
2018-07-25T05:42:23.083Z,26.50
2018-07-25T05:44:52.469Z,26.60
2018-07-25T05:47:22.245Z,26.60
2018-07-25T05:49:51.672Z,26.70
2018-07-25T05:52:21.116Z,26.80
2018-07-25T05:54:50.542Z,26.90
2018-07-25T05:57:20.078Z,26.90
2018-07-25T05:59:49.609Z,27.00
2018-07-25T06:02:19.858Z,27.10
2018-07-25T06:04:49.648Z,27.20
2018-07-25T06:07:19.168Z,27.30
2018-07-25T06:09:48.915Z,27.40
2018-07-25T06:12:19.678Z,27.50
2018-07-25T06:14:49.717Z,27.70
2018-07-25T06:17:19.375Z,27.80
2018-07-25T06:19:49.164Z,28.00
2018-07-25T06:22:18.879Z,28.10
2018-07-25T06:24:48.304Z,28.30
2018-07-25T06:27:17.997Z,28.40
2018-07-25T06:29:47.430Z,28.60
2018-07-25T06:32:16.919Z,28.80
2018-07-25T06:34:46.435Z,29.00
2018-07-25T06:37:16.160Z,29.20
2018-07-25T06:39:45.313Z,29.30
2018-07-25T06:42:15.095Z,29.50
2018-07-25T06:44:44.553Z,29.70
2018-07-25T06:47:14.247Z,29.90
2018-07-25T06:49:43.656Z,30.10
2018-07-25T06:52:13.130Z,30.30
2018-07-25T06:54:42.602Z,30.40
2018-07-25T06:57:12.039Z,30.60
2018-07-25T06:59:41.783Z,30.80
2018-07-25T07:02:11.732Z,31.00
2018-07-25T07:04:41.119Z,31.10
2018-07-25T07:07:10.520Z,31.30
2018-07-25T07:09:39.954Z,31.50
2018-07-25T07:12:10.283Z,31.70
2018-07-25T07:14:39.981Z,31.90
2018-07-25T07:17:09.855Z,32.00
2018-07-25T07:19:39.246Z,32.20
2018-07-25T07:22:08.677Z,32.40
2018-07-25T07:24:38.380Z,32.50
2018-07-25T07:27:07.958Z,32.70
2018-07-25T07:29:37.736Z,32.80
2018-07-25T07:32:07.236Z,32.90
2018-07-25T07:34:36.659Z,33.00
2018-07-25T07:37:06.315Z,33.20
2018-07-25T07:39:36.025Z,33.30
2018-07-25T07:42:05.965Z,33.40
2018-07-25T07:44:35.830Z,33.50
2018-07-25T07:47:05.825Z,33.60
2018-07-25T07:49:35.301Z,33.80
2018-07-25T07:52:04.776Z,33.80
2018-07-25T07:54:34.162Z,33.90
2018-07-25T07:57:03.626Z,34.00
2018-07-25T07:59:33.309Z,34.10
2018-07-25T08:02:02.817Z,34.30
2018-07-25T08:04:32.515Z,34.40
2018-07-25T08:07:01.961Z,34.50
2018-07-25T08:09:31.439Z,34.60
2018-07-25T08:12:00.864Z,34.70
2018-07-25T08:14:30.834Z,34.80
2018-07-25T08:17:00.242Z,34.90
2018-07-25T08:19:29.662Z,35.00
2018-07-25T08:21:59.037Z,35.10
2018-07-25T08:24:28.456Z,35.30
2018-07-25T08:26:57.847Z,35.40
2018-07-25T08:29:27.288Z,35.50
2018-07-25T08:31:56.690Z,35.60
2018-07-25T08:34:26.236Z,35.70
2018-07-25T08:36:55.709Z,35.80
2018-07-25T08:39:25.149Z,35.90
2018-07-25T08:41:54.800Z,36.00
2018-07-25T08:44:24.260Z,36.10
2018-07-25T08:46:54.303Z,36.20
2018-07-25T08:49:24.136Z,36.30
2018-07-25T08:51:53.599Z,36.40
2018-07-25T08:54:22.968Z,36.50
2018-07-25T08:56:52.398Z,36.50
2018-07-25T08:59:21.821Z,36.60
2018-07-25T09:01:51.243Z,36.60
2018-07-25T09:04:20.630Z,36.60
2018-07-25T09:06:50.045Z,36.60
2018-07-25T09:09:19.411Z,36.70
2018-07-25T09:11:49.046Z,36.70
2018-07-25T09:14:18.482Z,36.70
2018-07-25T09:16:47.955Z,36.70
2018-07-25T09:19:17.322Z,36.60
2018-07-25T09:21:46.741Z,36.60
2018-07-25T09:24:16.299Z,36.60
2018-07-25T09:26:45.984Z,36.50
2018-07-25T09:29:15.405Z,36.40
2018-07-25T09:31:44.843Z,36.40
2018-07-25T09:34:14.379Z,36.30
2018-07-25T09:36:43.710Z,36.20
2018-07-25T09:39:13.122Z,36.10
2018-07-25T09:41:42.882Z,36.10
2018-07-25T09:44:12.626Z,36.00
2018-07-25T09:46:42.151Z,36.00
2018-07-25T09:49:11.482Z,35.90
2018-07-25T09:51:40.928Z,35.80
2018-07-25T09:54:10.369Z,35.70
2018-07-25T09:56:39.830Z,35.70
2018-07-25T09:59:09.231Z,35.60
2018-07-25T10:01:38.741Z,35.50
2018-07-25T10:04:08.197Z,35.40
2018-07-25T10:06:37.672Z,35.30
2018-07-25T10:09:11.563Z,35.30
2018-07-25T10:11:41.041Z,35.20
2018-07-25T10:14:10.476Z,35.10
2018-07-25T10:16:39.961Z,35.10
2018-07-25T10:19:09.765Z,35.00
2018-07-25T10:21:39.537Z,34.90
2018-07-25T10:24:09.015Z,34.90
2018-07-25T10:26:38.462Z,34.80
2018-07-25T10:29:07.888Z,34.70
2018-07-25T10:31:37.649Z,34.60
2018-07-25T10:34:07.483Z,34.60
2018-07-25T10:36:37.285Z,34.60
2018-07-25T10:39:09.078Z,34.50
2018-07-25T10:41:38.585Z,34.50
2018-07-25T10:44:08.031Z,34.40
2018-07-25T10:46:37.440Z,34.30
2018-07-25T10:49:06.919Z,34.30
2018-07-25T10:51:36.695Z,34.30
2018-07-25T10:54:06.421Z,34.20
2018-07-25T10:56:35.850Z,34.20
2018-07-25T10:59:05.302Z,34.10
2018-07-25T11:01:35.073Z,34.10
2018-07-25T11:04:04.645Z,34.00
2018-07-25T11:06:34.375Z,34.00
2018-07-25T11:09:04.991Z,34.00
2018-07-25T11:11:34.561Z,33.90
2018-07-25T11:14:04.304Z,33.90
2018-07-25T11:16:34.178Z,33.90
2018-07-25T11:19:04.398Z,33.80
2018-07-25T11:21:34.361Z,33.80
2018-07-25T11:24:04.762Z,33.80
2018-07-25T11:26:34.951Z,33.80
2018-07-25T11:29:05.402Z,33.70
2018-07-25T11:31:34.924Z,33.70
2018-07-25T11:34:04.731Z,33.70
2018-07-25T11:36:34.877Z,33.70
2018-07-25T11:39:07.469Z,33.60
2018-07-25T11:41:37.405Z,33.60
2018-07-25T11:44:07.257Z,33.60
2018-07-25T11:46:37.037Z,33.60
2018-07-25T11:49:06.941Z,33.50
2018-07-25T11:51:36.348Z,33.50
2018-07-25T11:54:06.503Z,33.50
2018-07-25T11:56:36.821Z,33.50
2018-07-25T11:59:07.237Z,33.50
2018-07-25T12:01:36.832Z,33.50
2018-07-25T12:04:06.352Z,33.50
2018-07-25T12:06:36.472Z,33.40
2018-07-25T12:09:10.389Z,33.40
2018-07-25T12:11:44.354Z,33.40
2018-07-25T12:14:15.984Z,33.40
2018-07-25T12:16:46.403Z,33.30
2018-07-25T12:19:16.944Z,33.30
2018-07-25T12:21:47.305Z,33.30
2018-07-25T12:24:17.117Z,33.30
2018-07-25T12:26:47.217Z,33.30
2018-07-25T12:29:16.940Z,33.30
2018-07-25T12:31:47.200Z,33.20
2018-07-25T12:34:17.029Z,33.20
2018-07-25T12:36:47.176Z,33.20
2018-07-25T12:39:16.910Z,33.20
2018-07-25T12:41:47.068Z,33.20
2018-07-25T12:44:17.173Z,33.20
2018-07-25T12:46:46.697Z,33.20
2018-07-25T12:49:17.101Z,33.20
2018-07-25T12:51:47.131Z,33.20
2018-07-25T12:54:16.618Z,33.20
2018-07-25T12:56:46.960Z,33.20
2018-07-25T12:59:17.143Z,33.10
2018-07-25T13:01:46.866Z,33.10
2018-07-25T13:04:16.606Z,33.10
2018-07-25T13:06:46.652Z,33.10
2018-07-25T13:09:16.473Z,33.10
2018-07-25T13:11:46.861Z,33.10
2018-07-25T13:14:16.998Z,33.10
2018-07-25T13:16:47.436Z,33.10
2018-07-25T13:19:17.635Z,33.10
2018-07-25T13:21:47.750Z,33.10
2018-07-25T13:24:17.721Z,33.10
2018-07-25T13:26:47.653Z,33.10
2018-07-25T13:29:17.112Z,33.10
2018-07-25T13:31:47.137Z,33.10
2018-07-25T13:34:17.069Z,33.10
2018-07-25T13:36:47.274Z,33.10
2018-07-25T13:39:17.369Z,33.10
2018-07-25T13:41:47.873Z,33.10
2018-07-25T13:44:17.680Z,33.00
2018-07-25T13:46:47.736Z,33.00
2018-07-25T13:49:18.034Z,33.00
2018-07-25T13:51:47.864Z,33.00
2018-07-25T13:54:17.820Z,33.00
2018-07-25T13:56:47.624Z,33.00
2018-07-25T13:59:17.589Z,33.00
2018-07-25T14:01:47.115Z,33.00
2018-07-25T14:04:16.568Z,33.00
2018-07-25T14:06:47.058Z,33.00
2018-07-25T14:09:16.562Z,33.00
2018-07-25T14:11:46.415Z,33.00
2018-07-25T14:14:16.515Z,33.00
2018-07-25T14:16:47.201Z,33.00
2018-07-25T14:19:17.554Z,33.00
2018-07-25T14:21:48.116Z,33.00
2018-07-25T14:24:18.165Z,33.00
2018-07-25T14:26:48.073Z,33.00
2018-07-25T14:29:18.501Z,33.00
2018-07-25T14:31:48.288Z,33.00
2018-07-25T14:34:18.701Z,33.00
2018-07-25T14:36:48.172Z,33.00
2018-07-25T14:39:17.629Z,33.00
2018-07-25T14:41:48.034Z,33.00
2018-07-25T14:44:17.729Z,33.00
2018-07-25T14:46:47.356Z,33.00
2018-07-25T14:49:17.319Z,33.00
2018-07-25T14:51:46.826Z,33.00
2018-07-25T14:54:16.891Z,33.00
2018-07-25T14:56:46.912Z,33.00
2018-07-25T14:59:17.034Z,33.00
2018-07-25T15:01:47.170Z,33.00
2018-07-25T15:04:17.404Z,33.00
2018-07-25T15:06:47.097Z,33.00
2018-07-25T15:09:17.513Z,33.00
2018-07-25T15:11:47.589Z,33.00
2018-07-25T15:14:17.862Z,33.00
2018-07-25T15:16:48.663Z,33.00
2018-07-25T15:19:18.690Z,33.00
2018-07-25T15:21:48.270Z,33.00
2018-07-25T15:24:18.677Z,33.00
2018-07-25T15:26:48.633Z,33.00
2018-07-25T15:29:18.463Z,33.00
2018-07-25T15:34:17.838Z,33.00
2018-07-25T15:36:50.614Z,33.00
2018-07-25T15:39:21.534Z,33.00
2018-07-25T15:41:51.546Z,33.00
2018-07-25T15:44:22.474Z,33.00
2018-07-25T15:46:52.387Z,33.10
2018-07-25T15:49:21.928Z,33.10
2018-07-25T15:51:51.737Z,33.10
2018-07-25T15:54:21.920Z,33.10
2018-07-25T15:56:52.094Z,33.10
2018-07-25T15:59:21.893Z,33.10
2018-07-25T16:01:51.754Z,33.10
2018-07-25T16:04:21.984Z,33.10
2018-07-25T16:06:52.409Z,33.10
2018-07-25T16:09:22.438Z,33.10
2018-07-25T16:11:52.622Z,33.10
2018-07-25T16:14:22.432Z,33.10
2018-07-25T16:16:52.255Z,33.10
2018-07-25T16:19:22.160Z,33.10
2018-07-25T16:21:53.358Z,33.10
2018-07-25T16:24:22.881Z,33.10
2018-07-25T16:26:52.868Z,33.10
2018-07-25T16:29:22.787Z,33.10
2018-07-25T16:31:52.808Z,33.10
2018-07-25T16:34:23.241Z,33.10
2018-07-25T16:36:52.740Z,33.10
2018-07-25T16:39:22.718Z,33.20
2018-07-25T16:41:52.536Z,33.20
2018-07-25T16:44:22.116Z,33.20
2018-07-25T16:46:52.192Z,33.20
2018-07-25T16:49:21.993Z,33.20
2018-07-25T16:51:51.505Z,33.20
2018-07-25T16:54:21.334Z,33.20
2018-07-25T16:56:51.200Z,33.20
2018-07-25T16:59:20.975Z,33.20
2018-07-25T17:01:51.468Z,33.20
2018-07-25T17:04:21.280Z,33.20
2018-07-25T17:06:51.392Z,33.20
2018-07-25T17:09:21.289Z,33.20
2018-07-25T17:11:51.178Z,33.20
2018-07-25T17:14:21.259Z,33.20
2018-07-25T17:16:51.235Z,33.30
2018-07-25T17:19:20.972Z,33.30
2018-07-25T17:21:50.688Z,33.30
2018-07-25T17:24:20.482Z,33.20
2018-07-25T17:26:50.307Z,33.20
2018-07-25T17:29:20.330Z,33.20
2018-07-25T17:31:50.101Z,33.20
2018-07-25T17:34:19.519Z,33.20
2018-07-25T17:36:49.741Z,33.20
2018-07-25T17:39:19.198Z,33.20
2018-07-25T17:41:49.281Z,33.10
2018-07-25T17:44:18.743Z,33.10
2018-07-25T17:46:48.507Z,33.10
2018-07-25T17:49:18.453Z,33.10
2018-07-25T17:51:47.956Z,33.00
2018-07-25T17:54:17.486Z,33.00
2018-07-25T17:56:47.839Z,33.00
2018-07-25T17:59:18.178Z,33.00
2018-07-25T18:01:47.789Z,33.00
2018-07-25T18:04:17.916Z,33.00
2018-07-25T18:06:48.035Z,32.90
2018-07-25T18:09:18.005Z,32.90
2018-07-25T18:11:48.853Z,32.90
2018-07-25T18:14:18.900Z,32.90
2018-07-25T18:16:49.071Z,32.80
2018-07-25T18:19:19.166Z,32.80
2018-07-25T18:21:49.305Z,32.80
2018-07-25T18:24:18.853Z,32.80
2018-07-25T18:26:48.888Z,32.70
2018-07-25T18:29:19.421Z,32.70
2018-07-25T18:31:49.100Z,32.70
2018-07-25T18:34:19.180Z,32.70
2018-07-25T18:36:48.718Z,32.60
2018-07-25T18:39:18.863Z,32.60
2018-07-25T18:41:48.625Z,32.60
2018-07-25T18:44:18.839Z,32.60
2018-07-25T18:46:48.344Z,32.60
2018-07-25T18:49:18.392Z,32.60
2018-07-25T18:51:48.260Z,32.50
2018-07-25T18:54:17.799Z,32.50
2018-07-25T18:56:47.301Z,32.50
2018-07-25T18:59:17.391Z,32.50
2018-07-25T19:01:47.238Z,32.50
2018-07-25T19:04:17.409Z,32.40
2018-07-25T19:06:47.468Z,32.40
2018-07-25T19:09:17.744Z,32.40
2018-07-25T19:11:48.187Z,32.40
2018-07-25T19:14:23.443Z,32.30
2018-07-25T19:16:53.453Z,32.30
2018-07-25T19:19:23.523Z,32.30
2018-07-25T19:21:53.606Z,32.30
2018-07-25T19:24:23.199Z,32.30
2018-07-25T19:26:52.975Z,32.30
2018-07-25T19:29:23.047Z,32.20
2018-07-25T19:31:52.578Z,32.20
2018-07-25T19:34:22.660Z,32.20
2018-07-25T19:36:52.746Z,32.20
2018-07-25T19:39:22.544Z,32.20
2018-07-25T19:41:53.344Z,32.10
2018-07-25T19:44:23.142Z,32.10
2018-07-25T19:46:52.681Z,32.10
2018-07-25T19:49:22.488Z,32.10
2018-07-25T19:51:52.189Z,32.00
2018-07-25T19:54:22.449Z,32.00
2018-07-25T19:56:53.232Z,32.00
2018-07-25T19:59:23.453Z,32.00
2018-07-25T20:01:53.512Z,31.90
2018-07-25T20:04:23.897Z,31.90
2018-07-25T20:06:54.063Z,31.90
2018-07-25T20:09:23.560Z,31.90
2018-07-25T20:11:53.126Z,31.80
2018-07-25T20:14:28.216Z,31.80
2018-07-25T20:16:58.003Z,31.70
2018-07-25T20:19:27.931Z,31.70
2018-07-25T20:21:58.086Z,31.70
2018-07-25T20:24:27.557Z,31.70
2018-07-25T20:26:57.480Z,31.60
2018-07-25T20:29:27.175Z,31.60
2018-07-25T20:31:57.302Z,31.60
2018-07-25T20:34:27.085Z,31.50
2018-07-25T20:36:57.262Z,31.50
2018-07-25T20:39:26.790Z,31.50
2018-07-25T20:41:56.685Z,31.40
2018-07-25T20:44:27.029Z,31.40
2018-07-25T20:46:57.309Z,31.40
2018-07-25T20:49:27.024Z,31.30
2018-07-25T20:51:56.874Z,31.30
2018-07-25T20:54:26.586Z,31.30
2018-07-25T20:56:56.184Z,31.20
2018-07-25T20:59:26.839Z,31.20
2018-07-25T21:01:56.917Z,31.20
2018-07-25T21:04:27.027Z,31.10
2018-07-25T21:06:56.765Z,31.10
2018-07-25T21:09:27.390Z,31.00
2018-07-25T21:11:57.867Z,31.00
2018-07-25T21:14:27.886Z,31.00
2018-07-25T21:16:57.665Z,30.90
2018-07-25T21:19:27.672Z,30.90
2018-07-25T21:21:58.465Z,30.80
2018-07-25T21:24:28.548Z,30.80
2018-07-25T21:26:58.633Z,30.70
2018-07-25T21:29:28.879Z,30.70
2018-07-25T21:31:58.804Z,30.70
2018-07-25T21:34:28.853Z,30.60
2018-07-25T21:36:58.548Z,30.60
2018-07-25T21:39:28.268Z,30.60
2018-07-25T21:41:57.699Z,30.50
2018-07-25T21:44:27.196Z,30.50
2018-07-25T21:46:56.643Z,30.40
2018-07-25T21:49:26.787Z,30.40
2018-07-25T21:51:56.570Z,30.30
2018-07-25T21:54:26.941Z,30.30
2018-07-25T21:56:57.032Z,30.30
2018-07-25T21:59:26.834Z,30.20
2018-07-25T22:01:57.116Z,30.20
2018-07-25T22:04:27.325Z,30.10
2018-07-25T22:06:57.773Z,30.10
2018-07-25T22:09:28.568Z,30.10
2018-07-25T22:11:59.147Z,30.00
2018-07-25T22:14:29.145Z,30.00
2018-07-25T22:16:59.545Z,30.00
2018-07-25T22:19:29.321Z,29.90
2018-07-25T22:21:59.112Z,29.90
2018-07-25T22:24:29.187Z,29.80
2018-07-25T22:26:59.056Z,29.80
2018-07-25T22:29:28.710Z,29.80
2018-07-25T22:31:58.688Z,29.70
2018-07-25T22:34:28.625Z,29.70
2018-07-25T22:36:58.422Z,29.60
2018-07-25T22:39:28.373Z,29.60
2018-07-25T22:41:58.568Z,29.60
2018-07-25T22:44:28.611Z,29.50
2018-07-25T22:46:58.510Z,29.50
2018-07-25T22:49:28.215Z,29.40
2018-07-25T22:51:58.010Z,29.40
2018-07-25T22:54:27.871Z,29.40
2018-07-25T22:56:57.681Z,29.30
2018-07-25T22:59:27.787Z,29.30
2018-07-25T23:01:57.966Z,29.30
2018-07-25T23:04:28.065Z,29.20
2018-07-25T23:06:57.766Z,29.20
2018-07-25T23:09:28.101Z,29.20
2018-07-25T23:11:57.860Z,29.10
2018-07-25T23:14:27.571Z,29.10
2018-07-25T23:16:57.022Z,29.10
2018-07-25T23:19:27.061Z,29.00
2018-07-25T23:21:56.839Z,29.00
2018-07-25T23:24:26.817Z,29.00
2018-07-25T23:26:56.850Z,28.90
2018-07-25T23:29:26.503Z,28.90
2018-07-25T23:31:56.310Z,28.90
2018-07-25T23:34:26.093Z,28.80
2018-07-25T23:36:56.174Z,28.80
2018-07-25T23:39:26.387Z,28.80
2018-07-25T23:41:56.330Z,28.80
2018-07-25T23:44:26.045Z,28.70
2018-07-25T23:46:56.609Z,28.70
2018-07-25T23:49:25.787Z,28.70
2018-07-25T23:51:55.825Z,28.60
2018-07-25T23:54:25.499Z,28.60
2018-07-25T23:56:55.594Z,28.60
2018-07-25T23:59:25.629Z,28.60
